This is the latest recevied weather packets stored in our database for station/object KQ4WWD. If no packets are shown the sender has not sent any weather packets the latest 10 day(s).
| Time | Temp. | Humidity | Pressure | Rain* | Wind** | Luminosity | Snow |
|---|---|---|---|---|---|---|---|
| 1777480473 | 29.44° C | 62% | 1016.2 hPa | 0 mm | - | 746 W/m² | - |
| 1777480169 | 29.44° C | 62% | 1016 hPa | 0 mm | - | 647 W/m² | - |
| 1777479866 | 29.44° C | 62% | 1016.1 hPa | 0 mm | - | 724 W/m² | - |
| 1777479563 | 28.89° C | 61% | 1016.3 hPa | 0 mm | - | 760 W/m² | - |
| 1777479261 | 28.89° C | 62% | 1016.4 hPa | 0 mm | - | 698 W/m² | - |
| 1777478957 | 27.78° C | 65% | 1016.6 hPa | 0 mm | - | 708 W/m² | - |
| 1777478654 | 28.89° C | 63% | 1016.7 hPa | 0 mm | - | 551 W/m² | - |
| 1777478350 | 28.89° C | 64% | 1016.6 hPa | 0 mm | - | 588 W/m² | - |
| 1777478047 | 28.89° C | 64% | 1016.7 hPa | 0 mm | - | 510 W/m² | - |
| 1777477743 | 28.33° C | 67% | 1016.6 hPa | 0 mm | - | 553 W/m² | - |
| 1777477439 | 27.78° C | 70% | 1016.6 hPa | 0 mm | - | 524 W/m² | - |
| 1777477136 | 28.33° C | 67% | 1016.6 hPa | 0 mm | - | 610 W/m² | - |
| 1777476832 | 27.22° C | 73% | 1016.8 hPa | 0 mm | - | 692 W/m² | - |
| 1777476530 | 28.33° C | 71% | 1016.6 hPa | 0 mm | - | 264 W/m² | - |
| 1777476226 | 28.33° C | 70% | 1016.8 hPa | 0 mm | - | 754 W/m² | - |
| 1777475922 | 27.78° C | 69% | 1016.7 hPa | 0 mm | - | 591 W/m² | - |
| 1777475618 | 26.67° C | 74% | 1017.1 hPa | 0 mm | - | 752 W/m² | - |
| 1777475315 | 27.78° C | 72% | 1017 hPa | 0 mm | - | 665 W/m² | - |
| 1777475010 | 27.78° C | 74% | 1017.1 hPa | 0 mm | - | 741 W/m² | - |
| 1777474707 | 27.22° C | 73% | 1017.1 hPa | 0 mm | - | 702 W/m² | - |
| 1777474403 | 27.22° C | 76% | 1017.3 hPa | 0 mm | - | 619 W/m² | - |
| 1777474100 | 27.22° C | 74% | 1017.3 hPa | 0 mm | - | 651 W/m² | - |
| 1777473798 | 26.67° C | 76% | 1017.7 hPa | 0 mm | - | 550 W/m² | - |
| 1777473494 | 27.22° C | 75% | 1017.6 hPa | 0 mm | - | 593 W/m² | - |
| 1777473190 | 26.67° C | 76% | 1017.5 hPa | 0 mm | - | 651 W/m² | - |
* Rain latest hour (hover to see other rain measurements)
** Current wind speed in m/s (hover to see current wind gust speed)